Waterbury, CT

9:59 PM EDT on July 26, 2016 (GMT -0400)
Overlook | | Change Station

Elev 577 ft 41.58 °N, 73.04 °W | Updated 14 seconds ago

Clear
Clear
76.4 °F
Feels Like 78 °F
N
1.0
Wind Variable Wind from North
Gusts 3.0 mph

Today
High -- | Low -- °F
--% Chance of Precip.
Yesterday
High -- | Low -- °F
Precip. -- in
Pressure 29.90 in
Visibility 10.0 miles
Clouds Clear
Heat Index 78 °F
Dew Point 65 °F
Humidity 67%
Rainfall 0.00 in
Snow Depth Not available.
5:41 AM 8:15 PM
Waning Gibbous, 49% visible
METAR KMMK 270153Z AUTO 00000KT 10SM CLR 24/17 A2991 RMK AO2 SLP125 T02390172 TSNO
Pressure 29.90 in
Visibility 10.0 miles
Clouds Clear
Heat Index 78 °F
Dew Point 65 °F
Humidity 67%
Rainfall 0.00 in
Snow Depth Not available.
5:41 AM 8:15 PM
Waning Gibbous, 49% visible
METAR KMMK 270153Z AUTO 00000KT 10SM CLR 24/17 A2991 RMK AO2 SLP125 T02390172 TSNO

10-Day Weather Forecast

Almanac

Astronomy

Jul. 26, 2016 Rise Set
Actual Time
Civil Twilight
Nautical Twilight
Astronomical Twilight
Moon
Length of Visible Light
Length of Day
Tomorrow will be .
, % of the Moon is Illuminated

Today's Extremes

State Highs State Lows

Community

WunderPhotos

Upload Photos

1,927,772 photos uploaded!

WunderBlog® & News

Nearby

Air Quality

  Air Quality AQ Index Pollutant
Not available.

Snow Depth

Station Depth Elevation

Earthquake Activity

City Distance Mag. Time & Date
Minimum magnitude displayed is 2.5.

Coastal Water Temperatures

Place Temperature

Stations

Nearby Weather Stations

Station Location Temp. Windchill Dew Point Humidity Wind Precip. Elev Updated Type
                   

Watches & Warnings

There are currently no watches in effect.